Time;durP1;ratioP1;P1;durP2;ratioP2;P2;SDS_P1;SDS_P2;PMS_P1;PMS_P2;Temp;Humidity;BMP_temperature;BMP_pressure;BME280_temperature;BME280_humidity;BME280_pressure;Samples;Min_cycle;Max_cycle;Signal;HPM_P1;HPM_P2
2022/09/26 00:01:18;;;;;;;4.10;2.00;;;6.80;99.90;;;;;;5011259;28;20379;-51
2022/09/26 00:03:50;;;;;;;4.83;2.20;;;6.80;99.90;;;;;;5010658;28;20223;-50
2022/09/26 00:06:19;;;;;;;13.30;11.03;;;6.80;99.90;;;;;;5011520;28;20214;-51
2022/09/26 00:08:49;;;;;;;4.73;2.47;;;6.70;99.90;;;;;;5011526;28;20213;-50
2022/09/26 00:11:19;;;;;;;4.80;1.93;;;6.70;99.90;;;;;;5011389;28;20260;-51
2022/09/26 00:13:51;;;;;;;3.03;1.90;;;6.60;99.90;;;;;;5010490;28;20290;-51
2022/09/26 00:16:20;;;;;;;20.63;13.10;;;6.70;99.90;;;;;;5011518;28;20229;-50
2022/09/26 00:18:51;;;;;;;3.87;1.90;;;6.60;99.90;;;;;;5011793;28;20207;-50
2022/09/26 00:21:19;;;;;;;5.17;1.77;;;6.70;99.90;;;;;;5009409;28;20634;-50
2022/09/26 00:23:48;;;;;;;22.90;11.07;;;6.60;99.90;;;;;;5010268;28;20227;-51
2022/09/26 00:26:18;;;;;;;4.57;2.10;;;6.70;99.90;;;;;;5011005;28;20301;-50
2022/09/26 00:28:46;;;;;;;9.03;3.30;;;6.60;99.90;;;;;;5010599;28;20312;-51
2022/09/26 00:31:17;;;;;;;104.23;63.27;;;6.60;99.90;;;;;;5010671;28;20326;-50
2022/09/26 00:33:45;;;;;;;8.77;4.40;;;6.60;99.90;;;;;;4998608;28;20269;-51
2022/09/26 00:36:15;;;;;;;4.33;2.20;;;6.60;99.90;;;;;;5010691;28;20256;-50
2022/09/26 00:38:44;;;;;;;3.80;2.27;;;6.50;99.90;;;;;;5010526;28;20207;-50
2022/09/26 00:41:13;;;;;;;4.83;4.13;;;6.50;99.90;;;;;;5010150;28;20328;-51
2022/09/26 00:43:43;;;;;;;3.00;2.00;;;6.50;99.90;;;;;;5008212;28;20226;-50
2022/09/26 00:46:21;;;;;;;3.23;1.90;;;6.60;99.90;;;;;;5010420;28;20417;-50
2022/09/26 00:48:55;;;;;;;4.57;2.37;;;6.50;99.90;;;;;;5010747;28;20221;-50
2022/09/26 00:51:25;;;;;;;5.47;2.70;;;6.50;99.90;;;;;;5011082;28;20232;-50
2022/09/26 00:53:54;;;;;;;7.47;4.73;;;6.50;99.90;;;;;;5009712;28;20203;-50
2022/09/26 00:56:26;;;;;;;3.07;2.20;;;6.50;99.90;;;;;;5010812;28;20308;-50
2022/09/26 00:58:58;;;;;;;3.90;1.80;;;6.50;99.90;;;;;;5010218;28;20202;-50
2022/09/26 01:01:26;;;;;;;4.50;2.10;;;6.50;99.90;;;;;;5010520;28;20692;-51
2022/09/26 01:03:54;;;;;;;4.27;2.00;;;6.50;99.90;;;;;;5009905;28;20232;-51
2022/09/26 01:06:24;;;;;;;5.13;2.43;;;6.50;99.90;;;;;;5010356;28;20719;-50
2022/09/26 01:08:57;;;;;;;3.03;2.50;;;6.50;99.90;;;;;;5009943;28;20668;-50
2022/09/26 01:11:25;;;;;;;2.90;2.10;;;6.50;99.90;;;;;;5010672;28;20321;-51
2022/09/26 01:13:54;;;;;;;6.17;2.10;;;6.50;99.90;;;;;;5009040;28;20321;-50
2022/09/26 01:16:22;;;;;;;3.70;2.00;;;6.50;99.90;;;;;;5010413;28;20295;-50
2022/09/26 01:18:50;;;;;;;2.20;2.00;;;6.50;99.90;;;;;;5010488;28;20331;-51
2022/09/26 01:21:41;;;;;;;4.10;2.00;;;6.50;99.90;;;;;;5009383;28;20973;-49
2022/09/26 01:24:39;;;;;;;5.30;2.10;;;6.50;99.90;;;;;;5010271;28;20313;-50
2022/09/26 01:27:33;;;;;;;4.43;2.23;;;6.50;99.90;;;;;;5009649;28;20211;-50
2022/09/26 01:30:07;;;;;;;3.90;2.60;;;6.50;99.90;;;;;;4997352;28;20306;-51
2022/09/26 01:33:01;;;;;;;5.00;1.90;;;6.50;99.90;;;;;;5008532;28;20872;-50
2022/09/26 01:35:58;;;;;;;8.80;7.93;;;6.50;99.90;;;;;;5009973;28;20256;-50
2022/09/26 01:38:38;;;;;;;2.00;1.77;;;6.50;99.90;;;;;;5009790;28;20296;-51
2022/09/26 01:41:20;;;;;;;5.97;2.47;;;6.50;99.90;;;;;;5010120;28;20223;-50
2022/09/26 01:43:54;;;;;;;2.50;2.10;;;6.60;99.90;;;;;;5008559;28;20293;-50
2022/09/26 01:46:34;;;;;;;4.10;2.03;;;6.60;99.90;;;;;;5010195;28;20306;-50
2022/09/26 01:49:09;;;;;;;4.70;2.73;;;6.60;99.90;;;;;;5008175;28;20294;-50
2022/09/26 01:51:42;;;;;;;4.73;3.90;;;6.60;99.90;;;;;;5009326;28;20234;-50
2022/09/26 01:54:15;;;;;;;2.83;1.90;;;6.70;99.90;;;;;;5009720;28;20214;-51
2022/09/26 01:56:45;;;;;;;3.13;2.10;;;6.70;99.90;;;;;;5009481;28;20211;-50
2022/09/26 01:59:18;;;;;;;3.33;2.00;;;6.70;99.90;;;;;;5009712;28;20225;-51
2022/09/26 02:01:50;;;;;;;3.00;2.00;;;6.80;99.90;;;;;;5009272;28;20233;-51
2022/09/26 02:04:23;;;;;;;4.03;2.17;;;6.80;99.90;;;;;;5009461;28;20725;-50
2022/09/26 02:06:56;;;;;;;5.10;2.50;;;6.80;99.90;;;;;;5009305;28;20386;-51
2022/09/26 02:09:27;;;;;;;2.40;2.20;;;6.80;99.90;;;;;;5009866;28;20307;-50
2022/09/26 02:11:59;;;;;;;3.63;2.30;;;6.80;99.90;;;;;;5008042;28;20233;-51
2022/09/26 02:14:31;;;;;;;6.90;2.70;;;6.70;99.90;;;;;;5009624;28;20211;-51
2022/09/26 02:17:08;;;;;;;3.50;2.30;;;6.70;99.90;;;;;;5009754;28;20217;-50
2022/09/26 02:19:39;;;;;;;4.23;2.23;;;6.70;99.90;;;;;;5011411;28;20317;-51
2022/09/26 02:22:07;;;;;;;4.67;2.53;;;6.70;99.90;;;;;;5008591;28;20308;-51
2022/09/26 02:24:35;;;;;;;2.93;2.30;;;6.70;99.90;;;;;;5009036;28;20768;-51
2022/09/26 02:27:05;;;;;;;4.03;2.40;;;6.70;99.90;;;;;;5009393;28;20218;-51
2022/09/26 02:29:34;;;;;;;6.23;5.73;;;6.80;99.90;;;;;;5009252;28;20209;-51
2022/09/26 02:32:11;;;;;;;3.20;2.67;;;6.80;99.90;;;;;;5009303;28;20348;-50
2022/09/26 02:34:41;;;;;;;5.47;2.80;;;6.80;99.90;;;;;;5008682;28;20237;-51
2022/09/26 02:37:12;;;;;;;4.63;2.90;;;6.90;99.90;;;;;;5008926;28;20215;-50
2022/09/26 02:39:41;;;;;;;5.23;3.13;;;6.90;99.90;;;;;;5009259;28;20203;-50
2022/09/26 02:42:17;;;;;;;3.40;2.43;;;7.00;99.90;;;;;;5008264;28;20210;-51
2022/09/26 02:45:00;;;;;;;3.10;2.10;;;7.00;99.90;;;;;;5008861;28;20228;-51
2022/09/26 02:47:49;;;;;;;3.77;2.37;;;7.00;99.90;;;;;;5009154;28;20293;-50
2022/09/26 02:50:39;;;;;;;2.63;2.00;;;7.00;99.90;;;;;;5009367;28;20336;-50
2022/09/26 02:53:18;;;;;;;3.90;2.30;;;7.00;99.90;;;;;;5008172;28;20217;-50
2022/09/26 02:55:51;;;;;;;3.53;2.23;;;7.00;99.90;;;;;;5009369;28;20645;-50
2022/09/26 02:58:26;;;;;;;3.23;2.13;;;7.00;99.90;;;;;;5009150;28;20296;-50
2022/09/26 03:01:05;;;;;;;3.70;2.57;;;7.10;99.90;;;;;;5009086;28;20375;-51
2022/09/26 03:03:40;;;;;;;5.53;2.50;;;7.10;99.90;;;;;;5008345;28;20834;-49
2022/09/26 03:06:12;;;;;;;2.70;2.00;;;7.10;99.90;;;;;;5008784;28;20210;-50
2022/09/26 03:08:45;;;;;;;5.53;2.40;;;7.10;99.90;;;;;;5010597;28;20203;-51
2022/09/26 03:11:18;;;;;;;4.80;2.57;;;7.20;99.90;;;;;;5012701;28;20239;-50
2022/09/26 03:13:46;;;;;;;7.30;2.57;;;7.20;99.90;;;;;;5011615;28;20298;-50
2022/09/26 03:16:15;;;;;;;2.60;2.13;;;7.20;99.90;;;;;;5012454;28;20314;-50
2022/09/26 03:18:50;;;;;;;2.50;2.30;;;7.20;99.90;;;;;;5012590;28;20296;-50
2022/09/26 03:21:18;;;;;;;4.50;2.20;;;7.20;99.90;;;;;;5012597;28;20319;-50
2022/09/26 03:23:46;;;;;;;2.50;2.30;;;7.20;99.90;;;;;;5011887;28;20709;-50
2022/09/26 03:26:18;;;;;;;2.93;2.20;;;7.30;99.90;;;;;;5012322;28;20642;-51
2022/09/26 03:28:46;;;;;;;3.07;2.20;;;7.30;99.90;;;;;;5012468;28;20434;-50
2022/09/26 03:31:14;;;;;;;4.53;3.40;;;7.30;99.90;;;;;;5012388;28;20310;-51
2022/09/26 03:33:45;;;;;;;3.73;3.20;;;7.30;99.90;;;;;;5009659;28;20216;-50
2022/09/26 03:36:13;;;;;;;6.30;2.70;;;7.40;99.90;;;;;;5011813;28;20216;-50
2022/09/26 03:38:41;;;;;;;12.23;11.10;;;7.40;99.90;;;;;;5011857;28;20227;-50
2022/09/26 03:41:09;;;;;;;9.63;6.17;;;7.30;99.90;;;;;;5012283;28;20249;-50
2022/09/26 03:43:37;;;;;;;6.10;2.90;;;7.40;99.90;;;;;;5011857;28;20243;-50
2022/09/26 03:46:07;;;;;;;5.10;4.60;;;7.40;99.90;;;;;;5012168;28;20687;-51
2022/09/26 03:48:35;;;;;;;5.20;2.80;;;7.40;99.90;;;;;;5011985;28;20241;-50
2022/09/26 03:51:06;;;;;;;5.90;4.03;;;7.40;99.90;;;;;;5011608;28;20605;-50
2022/09/26 03:53:35;;;;;;;5.00;2.67;;;7.40;99.90;;;;;;5011073;28;20710;-50
2022/09/26 03:56:05;;;;;;;3.27;2.97;;;7.40;99.90;;;;;;5011822;28;20214;-50
2022/09/26 03:58:33;;;;;;;4.73;4.00;;;7.40;99.90;;;;;;5021970;28;20241;-50
2022/09/26 04:01:06;;;;;;;6.77;5.17;;;7.40;99.90;;;;;;5012054;28;20316;-51
2022/09/26 04:03:36;;;;;;;10.40;7.30;;;7.40;99.90;;;;;;5010910;28;20224;-50
2022/09/26 04:06:07;;;;;;;7.70;6.00;;;7.40;99.90;;;;;;5011647;28;20320;-51
2022/09/26 04:08:36;;;;;;;7.80;5.87;;;7.40;99.90;;;;;;5011915;28;20298;-49
2022/09/26 04:11:07;;;;;;;9.20;8.40;;;7.50;99.90;;;;;;5011488;28;20329;-49
2022/09/26 04:13:35;;;;;;;8.97;6.47;;;7.60;99.90;;;;;;5010663;28;20212;-50
2022/09/26 04:16:19;;;;;;;6.63;5.93;;;7.60;99.90;;;;;;5011392;28;20206;-51
2022/09/26 04:18:48;;;;;;;8.97;6.67;;;7.60;99.90;;;;;;5011352;28;20743;-50
2022/09/26 04:21:17;;;;;;;7.67;6.60;;;7.60;99.90;;;;;;5010916;28;20783;-50
2022/09/26 04:23:45;;;;;;;16.70;7.97;;;7.50;99.90;;;;;;5011018;28;20249;-51
2022/09/26 04:26:16;;;;;;;9.70;7.97;;;7.60;99.90;;;;;;5011249;28;20318;-51
2022/09/26 04:28:53;;;;;;;20.50;18.33;;;7.60;99.90;;;;;;5011062;28;20304;-51
2022/09/26 04:31:22;;;;;;;9.50;8.33;;;7.60;99.90;;;;;;5011173;28;20758;-50
2022/09/26 04:33:51;;;;;;;9.70;8.70;;;7.70;99.90;;;;;;5008764;28;20206;-50
2022/09/26 04:36:20;;;;;;;12.80;9.37;;;7.70;99.90;;;;;;5011505;28;20645;-50
2022/09/26 04:38:49;;;;;;;17.03;14.20;;;7.80;99.90;;;;;;5011441;28;20314;-50
2022/09/26 04:41:19;;;;;;;13.63;10.23;;;7.90;99.90;;;;;;5011386;28;20237;-50
2022/09/26 04:43:48;;;;;;;19.00;16.77;;;7.90;99.90;;;;;;5010353;28;20214;-49
2022/09/26 04:46:19;;;;;;;13.80;11.73;;;8.00;99.90;;;;;;5011336;28;20321;-50
2022/09/26 04:48:53;;;;;;;16.63;12.83;;;8.00;99.90;;;;;;5011358;28;20198;-51
2022/09/26 04:51:24;;;;;;;19.67;15.53;;;8.00;99.90;;;;;;5010740;28;20314;-51
2022/09/26 04:53:53;;;;;;;19.93;14.07;;;8.00;99.90;;;;;;5010632;28;20216;-50
2022/09/26 04:56:23;;;;;;;18.70;14.63;;;8.10;99.90;;;;;;5011063;28;20735;-51
2022/09/26 04:58:53;;;;;;;21.83;17.50;;;8.10;99.90;;;;;;5010793;28;20210;-50
2022/09/26 05:01:22;;;;;;;25.13;17.03;;;8.20;99.90;;;;;;5010461;28;20233;-50
2022/09/26 05:03:50;;;;;;;19.43;14.47;;;8.20;99.90;;;;;;5010079;28;20211;-50
2022/09/26 05:06:19;;;;;;;17.10;13.10;;;8.20;99.90;;;;;;5010672;28;20237;-50
2022/09/26 05:08:49;;;;;;;25.77;18.30;;;8.20;99.90;;;;;;5010460;28;20290;-51
2022/09/26 05:11:20;;;;;;;17.97;12.70;;;8.20;99.90;;;;;;5010452;28;20774;-51
2022/09/26 05:13:49;;;;;;;15.50;13.27;;;8.20;99.90;;;;;;5009759;28;20593;-51
2022/09/26 05:16:22;;;;;;;18.87;12.93;;;8.20;99.90;;;;;;5010552;28;20199;-50
2022/09/26 05:18:51;;;;;;;15.60;12.80;;;8.30;99.90;;;;;;5010631;28;20215;-50
2022/09/26 05:21:19;;;;;;;22.17;14.53;;;8.30;99.90;;;;;;5009950;28;20237;-50
2022/09/26 05:26:41;;;;;;;18.70;14.73;;;8.30;99.90;;;;;;5010175;28;20243;-51
2022/09/26 05:29:10;;;;;;;18.07;13.73;;;8.40;99.90;;;;;;5009609;28;20706;-51
2022/09/26 05:31:39;;;;;;;17.70;13.97;;;8.40;99.90;;;;;;5009190;28;20254;-51
2022/09/26 05:34:09;;;;;;;20.07;15.23;;;8.40;99.90;;;;;;5008490;28;20762;-50
2022/09/26 05:36:41;;;;;;;18.30;13.97;;;8.40;99.90;;;;;;5010651;28;20207;-51
2022/09/26 05:41:54;;;;;;;15.37;13.77;;;8.40;99.90;;;;;;5008726;28;20317;-51
2022/09/26 05:44:22;;;;;;;17.43;14.20;;;8.40;99.90;;;;;;5009487;28;20656;-50
2022/09/26 05:46:51;;;;;;;21.03;17.70;;;8.40;99.90;;;;;;5006503;28;20310;-51
2022/09/26 05:49:19;;;;;;;17.67;13.87;;;8.40;99.90;;;;;;5008367;28;20213;-51
2022/09/26 05:51:48;;;;;;;23.57;21.00;;;8.40;99.90;;;;;;5007820;28;20349;-50
2022/09/26 05:54:18;;;;;;;22.10;16.67;;;8.40;99.90;;;;;;5009374;28;20218;-50
2022/09/26 05:56:47;;;;;;;17.87;14.37;;;8.40;99.90;;;;;;5009515;28;20289;-51
2022/09/26 05:59:15;;;;;;;21.30;15.97;;;8.40;99.90;;;;;;5009668;28;20214;-50
2022/09/26 06:01:45;;;;;;;26.17;21.40;;;8.50;99.90;;;;;;5008827;28;20234;-51
2022/09/26 06:04:13;;;;;;;19.10;14.17;;;8.50;99.90;;;;;;5009606;28;20631;-50
2022/09/26 06:06:43;;;;;;;16.17;14.10;;;8.50;99.90;;;;;;5009068;28;20771;-50
2022/09/26 06:09:11;;;;;;;17.73;13.07;;;8.50;99.90;;;;;;5009454;28;20222;-51
2022/09/26 06:11:40;;;;;;;18.13;13.50;;;8.60;99.90;;;;;;5009682;28;20226;-51
2022/09/26 06:14:09;;;;;;;18.43;13.80;;;8.50;99.90;;;;;;5009088;28;20225;-51
2022/09/26 06:16:37;;;;;;;17.17;13.33;;;8.50;99.90;;;;;;5009919;28;20318;-51
2022/09/26 06:19:05;;;;;;;19.07;12.83;;;8.60;99.90;;;;;;5009553;28;20216;-51
2022/09/26 06:21:33;;;;;;;17.03;12.33;;;8.60;99.90;;;;;;5008629;28;20227;-51
2022/09/26 06:24:01;;;;;;;19.60;14.10;;;8.60;99.90;;;;;;5007701;28;20288;-51
2022/09/26 06:26:29;;;;;;;17.53;14.27;;;8.70;99.90;;;;;;5009289;28;20206;-51
2022/09/26 06:28:59;;;;;;;15.97;12.13;;;8.70;99.90;;;;;;5008564;28;20223;-51
2022/09/26 06:31:28;;;;;;;34.20;30.57;;;8.70;99.90;;;;;;5009709;28;20231;-51
2022/09/26 06:33:57;;;;;;;18.23;13.57;;;8.70;99.90;;;;;;5007975;28;20303;-50
2022/09/26 06:36:25;;;;;;;15.23;12.83;;;8.70;99.90;;;;;;5006432;28;20213;-52
2022/09/26 06:38:54;;;;;;;21.60;17.17;;;8.80;99.90;;;;;;5006413;28;20206;-51
2022/09/26 06:41:25;;;;;;;28.30;25.40;;;8.80;99.90;;;;;;5008777;28;20598;-51
2022/09/26 06:43:53;;;;;;;15.40;12.00;;;8.80;99.90;;;;;;4998627;28;20219;-50
2022/09/26 06:46:22;;;;;;;15.23;12.50;;;8.90;99.90;;;;;;5012915;28;20216;-51
2022/09/26 06:48:50;;;;;;;14.50;11.70;;;8.90;99.90;;;;;;5010484;28;20215;-51
2022/09/26 06:51:18;;;;;;;14.60;12.73;;;8.90;99.90;;;;;;5013399;28;20266;-51
2022/09/26 06:53:47;;;;;;;25.63;16.07;;;8.90;99.90;;;;;;5013032;28;20253;-50
2022/09/26 06:56:15;;;;;;;34.83;31.07;;;8.90;99.90;;;;;;5012765;28;20217;-51
2022/09/26 06:58:43;;;;;;;20.37;14.30;;;8.90;99.90;;;;;;5012243;28;20570;-51
2022/09/26 07:01:11;;;;;;;17.57;15.53;;;8.90;99.90;;;;;;5012706;28;20387;-51
2022/09/26 07:03:40;;;;;;;23.03;15.63;;;9.00;99.90;;;;;;5011631;28;20217;-50
2022/09/26 07:06:13;;;;;;;25.13;17.93;;;9.00;99.90;;;;;;5010743;28;20239;-51
2022/09/26 07:08:41;;;;;;;47.40;31.17;;;9.10;99.90;;;;;;5011822;28;20233;-51
2022/09/26 07:11:29;;;;;;;31.03;25.07;;;9.10;99.90;;;;;;5012326;28;20238;-51
2022/09/26 07:14:17;;;;;;;24.33;18.47;;;9.10;99.90;;;;;;5012190;28;20771;-54
2022/09/26 07:16:45;;;;;;;37.83;34.10;;;9.30;99.90;;;;;;5012111;28;20207;-52
2022/09/26 07:19:15;;;;;;;30.33;21.27;;;9.30;99.90;;;;;;5012274;28;20235;-53
2022/09/26 07:21:43;;;;;;;35.77;25.97;;;9.30;99.90;;;;;;5011237;28;20237;-53
2022/09/26 07:24:12;;;;;;;59.53;35.40;;;9.40;99.90;;;;;;5012116;28;20230;-53
2022/09/26 07:26:41;;;;;;;30.10;19.67;;;9.40;99.90;;;;;;5012381;28;20207;-53
2022/09/26 07:29:10;;;;;;;34.73;27.70;;;9.30;99.90;;;;;;5011407;28;20223;-53
2022/09/26 07:31:38;;;;;;;30.70;24.10;;;9.40;99.90;;;;;;5011848;28;20238;-53
2022/09/26 07:34:07;;;;;;;32.73;20.80;;;9.30;99.90;;;;;;5011328;28;20217;-53
2022/09/26 07:36:38;;;;;;;65.43;58.17;;;9.40;99.90;;;;;;5012285;28;20261;-53
2022/09/26 07:39:06;;;;;;;27.20;19.60;;;9.40;99.90;;;;;;5011377;28;20239;-53
2022/09/26 07:41:34;;;;;;;39.90;28.70;;;9.50;99.90;;;;;;5011794;28;20271;-53
2022/09/26 07:44:02;;;;;;;26.20;19.83;;;9.60;99.90;;;;;;5011043;28;20306;-55
2022/09/26 07:52:23;;;;;;;51.03;33.57;;;9.70;99.90;;;;;;5011027;28;20295;-51
2022/09/26 07:54:51;;;;;;;54.00;40.17;;;9.80;99.90;;;;;;5010362;28;20212;-51
2022/09/26 07:57:19;;;;;;;23.93;20.33;;;9.80;99.90;;;;;;5011658;28;20645;-51
2022/09/26 07:59:49;;;;;;;22.97;17.47;;;9.90;99.90;;;;;;5011576;28;20238;-51
2022/09/26 08:02:24;;;;;;;39.47;28.63;;;10.00;99.90;;;;;;5011610;28;20265;-51
2022/09/26 08:04:53;;;;;;;44.70;34.30;;;10.10;99.90;;;;;;5011634;28;20217;-51
2022/09/26 08:07:29;;;;;;;29.57;23.10;;;10.10;99.90;;;;;;5011549;28;20210;-50
2022/09/26 08:10:00;;;;;;;21.87;16.27;;;10.10;99.90;;;;;;5011185;28;20329;-51
2022/09/26 08:12:29;;;;;;;28.93;23.00;;;10.20;99.90;;;;;;5010726;28;20629;-51
2022/09/26 08:14:57;;;;;;;84.47;76.07;;;10.30;99.90;;;;;;5010930;28;20202;-51
2022/09/26 08:17:25;;;;;;;21.97;18.37;;;10.40;99.90;;;;;;5011432;28;20730;-50
2022/09/26 08:19:53;;;;;;;22.27;16.60;;;10.50;99.90;;;;;;5011216;28;20211;-51
2022/09/26 08:22:21;;;;;;;18.93;13.50;;;10.60;99.90;;;;;;5010899;28;20250;-50
2022/09/26 08:24:52;;;;;;;38.77;34.47;;;10.70;99.90;;;;;;5009975;28;20215;-51
2022/09/26 08:27:21;;;;;;;45.33;24.87;;;10.80;99.90;;;;;;5010415;28;20217;-51
2022/09/26 08:29:49;;;;;;;24.87;21.20;;;10.80;99.90;;;;;;5011383;28;20665;-50
2022/09/26 08:32:19;;;;;;;21.77;16.83;;;10.80;99.90;;;;;;5009743;28;20676;-50
2022/09/26 08:34:51;;;;;;;52.50;41.37;;;10.90;99.90;;;;;;5010920;28;20293;-51
2022/09/26 08:37:20;;;;;;;137.53;70.93;;;10.90;99.90;;;;;;5011120;28;20294;-51
2022/09/26 08:39:49;;;;;;;30.63;26.73;;;11.10;99.90;;;;;;5010762;28;20298;-51
2022/09/26 08:42:31;;;;;;;31.97;27.07;;;11.10;99.90;;;;;;5009789;28;20293;-51
2022/09/26 08:48:06;;;;;;;72.83;53.80;;;11.40;99.90;;;;;;5010439;28;20692;-51
2022/09/26 08:50:41;;;;;;;175.73;106.80;;;11.70;99.90;;;;;;5011040;28;20285;-51
2022/09/26 08:53:12;;;;;;;103.77;70.43;;;12.00;99.90;;;;;;5009451;28;20245;-52
2022/09/26 08:55:44;;;;;;;51.77;35.53;;;12.20;99.90;;;;;;5010999;28;20215;-51
2022/09/26 08:58:17;;;;;;;42.37;35.13;;;12.40;99.90;;;;;;5010126;28;20294;-50
2022/09/26 09:00:50;;;;;;;77.60;57.57;;;12.70;99.90;;;;;;5010471;28;21013;-51
2022/09/26 09:03:27;;;;;;;800.83;411.07;;;12.80;99.90;;;;;;5010016;28;20211;-51
2022/09/26 09:06:01;;;;;;;98.13;69.50;;;12.70;99.90;;;;;;5009853;28;20213;-51
2022/09/26 09:08:35;;;;;;;167.37;103.47;;;12.80;99.90;;;;;;5010047;28;20211;-51
2022/09/26 09:11:17;;;;;;;121.10;83.40;;;13.00;99.90;;;;;;5010420;28;20720;-51
2022/09/26 09:14:08;;;;;;;152.00;96.40;;;13.00;99.90;;;;;;5009693;28;20238;-51
2022/09/26 09:16:52;;;;;;;236.83;157.20;;;12.80;99.90;;;;;;5010098;28;20257;-51
2022/09/26 09:19:30;;;;;;;35.23;24.70;;;12.70;99.90;;;;;;5010507;28;20370;-51
2022/09/26 09:22:17;;;;;;;58.87;47.53;;;12.80;99.90;;;;;;5009318;28;20600;-51
2022/09/26 09:24:55;;;;;;;334.37;205.20;;;13.00;99.90;;;;;;5010300;28;20298;-51
2022/09/26 09:27:40;;;;;;;48.87;34.83;;;13.00;99.90;;;;;;5009947;28;20297;-51
2022/09/26 09:30:36;;;;;;;66.57;49.97;;;13.10;99.90;;;;;;5010165;28;20278;-51
2022/09/26 09:33:11;;;;;;;132.77;90.10;;;13.30;99.90;;;;;;5008732;28;20298;-51
2022/09/26 09:35:43;;;;;;;67.13;46.60;;;13.50;99.90;;;;;;5006179;28;20962;-52
2022/09/26 09:38:16;;;;;;;313.60;207.50;;;13.80;99.90;;;;;;5009202;28;20206;-50
2022/09/26 09:40:49;;;;;;;88.83;78.50;;;13.80;99.90;;;;;;5009503;28;20309;-51
2022/09/26 09:43:25;;;;;;;69.77;62.23;;;14.00;99.90;;;;;;5003943;28;20298;-50
2022/09/26 09:45:59;;;;;;;199.63;134.63;;;14.10;99.90;;;;;;5000507;28;20755;-51
2022/09/26 09:48:27;;;;;;;238.53;154.80;;;14.10;99.90;;;;;;5008191;28;20345;-51
2022/09/26 09:51:08;;;;;;;228.80;167.67;;;13.80;99.90;;;;;;5010651;28;20310;-51
2022/09/26 09:54:16;;;;;;;270.77;182.27;;;13.80;99.90;;;;;;5008760;28;20448;-51
2022/09/26 09:56:55;;;;;;;118.00;98.57;;;13.80;99.90;;;;;;5000306;28;20215;-51
2022/09/26 09:59:41;;;;;;;138.97;100.97;;;13.90;99.90;;;;;;5009155;28;20306;-51
2022/09/26 10:02:20;;;;;;;79.53;64.13;;;14.00;99.90;;;;;;5009253;28;20223;-51
2022/09/26 10:04:58;;;;;;;125.87;104.07;;;14.20;99.90;;;;;;4991162;28;20202;-50
2022/09/26 10:07:27;;;;;;;153.83;127.20;;;14.40;99.90;;;;;;5003112;28;20722;-51
2022/09/26 10:09:55;;;;;;;115.20;87.83;;;14.10;99.90;;;;;;5008656;28;20691;-51
2022/09/26 10:12:27;;;;;;;135.00;90.13;;;14.20;99.90;;;;;;5008808;28;20297;-51
2022/09/26 10:15:01;;;;;;;91.00;73.23;;;14.10;99.90;;;;;;5010059;28;20229;-51
2022/09/26 10:17:29;;;;;;;60.20;38.07;;;14.10;99.90;;;;;;5012180;28;20203;-51
2022/09/26 10:19:58;;;;;;;98.87;85.23;;;14.10;99.90;;;;;;5015855;28;20250;-51
2022/09/26 10:22:31;;;;;;;200.30;179.50;;;14.20;99.90;;;;;;5014867;28;20225;-51
2022/09/26 10:25:07;;;;;;;96.73;72.77;;;14.30;99.90;;;;;;5015687;28;20290;-51
2022/09/26 10:27:37;;;;;;;126.10;93.33;;;14.30;99.90;;;;;;5015667;28;20245;-50
2022/09/26 10:30:24;;;;;;;84.33;68.00;;;14.40;99.90;;;;;;5016033;28;20313;-50
2022/09/26 10:32:55;;;;;;;89.00;76.33;;;14.40;99.90;;;;;;5013521;28;20207;-51
2022/09/26 10:35:27;;;;;;;121.67;92.33;;;14.50;99.90;;;;;;5015834;28;20303;-51
2022/09/26 10:38:00;;;;;;;24.80;21.77;;;14.50;99.90;;;;;;5015584;28;20207;-51
2022/09/26 10:40:45;;;;;;;196.80;152.70;;;14.70;99.90;;;;;;5015742;28;20310;-51
2022/09/26 10:43:22;;;;;;;195.50;176.13;;;14.60;99.90;;;;;;5014435;28;20210;-51
2022/09/26 10:45:54;;;;;;;149.67;135.93;;;14.50;99.90;;;;;;5016036;28;20199;-50
2022/09/26 10:48:33;;;;;;;145.60;125.90;;;14.60;99.90;;;;;;5015558;28;20294;-51
2022/09/26 10:51:01;;;;;;;96.13;77.50;;;14.70;99.90;;;;;;5015564;28;20313;-51
2022/09/26 10:53:35;;;;;;;252.47;207.83;;;14.80;99.90;;;;;;5014559;28;20627;-51
2022/09/26 10:56:10;;;;;;;97.70;87.87;;;14.90;99.90;;;;;;5015660;28;20969;-51
2022/09/26 10:58:41;;;;;;;246.57;175.23;;;15.00;99.90;;;;;;5014974;28;20293;-51
2022/09/26 11:01:19;;;;;;;317.93;239.37;;;15.20;99.90;;;;;;5025461;28;20667;-50
2022/09/26 11:03:49;;;;;;;223.87;192.63;;;15.20;99.90;;;;;;5014923;28;20202;-51
2022/09/26 11:06:27;;;;;;;86.93;64.60;;;15.40;99.90;;;;;;5018676;28;20218;-50
2022/09/26 11:09:01;;;;;;;213.23;153.07;;;15.70;99.90;;;;;;5003704;28;20233;-51
2022/09/26 11:11:34;;;;;;;210.13;162.20;;;15.80;99.90;;;;;;5015356;28;20230;-51
2022/09/26 11:14:04;;;;;;;320.65;227.50;;;15.60;99.90;;;;;;5014854;28;20293;-51
2022/09/26 11:16:53;;;;;;;431.35;339.77;;;15.40;99.90;;;;;;5015674;28;20302;-50
2022/09/26 11:19:33;;;;;;;181.48;161.73;;;15.50;99.90;;;;;;5016047;28;20222;-50
2022/09/26 11:22:08;;;;;;;91.22;74.63;;;15.50;99.90;;;;;;5014570;28;20313;-51
2022/09/26 11:24:44;;;;;;;173.25;144.23;;;15.40;99.90;;;;;;5023804;28;20213;-50
2022/09/26 11:27:29;;;;;;;116.68;99.50;;;15.30;99.90;;;;;;5002992;28;20203;-51
2022/09/26 11:30:01;;;;;;;81.80;62.17;;;15.20;99.90;;;;;;5012188;28;20231;-51
2022/09/26 11:32:39;;;;;;;162.10;146.00;;;15.10;99.90;;;;;;5010911;28;20917;-50
2022/09/26 11:35:14;;;;;;;135.20;109.43;;;15.00;99.90;;;;;;5012145;28;20214;-50
2022/09/26 11:38:13;;;;;;;346.10;226.37;;;15.00;99.90;;;;;;5012173;28;20658;-50
2022/09/26 11:40:58;;;;;;;88.30;80.13;;;15.00;99.90;;;;;;5003189;28;20219;-51
2022/09/26 11:43:37;;;;;;;143.20;107.17;;;15.10;99.90;;;;;;5011191;28;20207;-50
2022/09/26 11:46:22;;;;;;;213.05;170.35;;;15.10;99.90;;;;;;5012313;28;20328;-50
2022/09/26 11:49:15;;;;;;;119.65;90.40;;;15.20;99.90;;;;;;5011978;28;20714;-51
2022/09/26 11:52:02;;;;;;;152.65;134.32;;;15.10;99.90;;;;;;5011809;28;20317;-51
2022/09/26 11:54:57;;;;;;;123.70;111.43;;;15.20;99.90;;;;;;5011911;28;20293;-51
2022/09/26 11:57:37;;;;;;;103.97;90.63;;;15.30;99.90;;;;;;5011415;28;20349;-51
2022/09/26 12:00:14;;;;;;;144.75;120.60;;;15.20;99.90;;;;;;5011897;28;20237;-51
2022/09/26 12:03:26;;;;;;;108.55;91.53;;;15.40;99.90;;;;;;5011434;28;20302;-51
2022/09/26 12:06:01;;;;;;;166.85;148.82;;;15.40;99.90;;;;;;5011025;28;20214;-51
2022/09/26 12:08:46;;;;;;;80.70;66.75;;;15.30;99.90;;;;;;5011845;28;20305;-51
2022/09/26 12:11:26;;;;;;;140.60;106.65;;;15.40;99.90;;;;;;5011172;28;20244;-51
2022/09/26 12:14:04;;;;;;;88.20;75.85;;;15.30;99.90;;;;;;5010362;28;20234;-51
2022/09/26 12:16:37;;;;;;;132.20;118.95;;;15.30;99.90;;;;;;5011213;28;20286;-50
2022/09/26 12:19:15;;;;;;;153.65;125.43;;;15.30;99.90;;;;;;5007403;28;20214;-50
2022/09/26 12:24:54;;;;;;;172.70;154.48;;;15.50;99.90;;;;;;5011381;28;20229;-51
2022/09/26 12:27:32;;;;;;;92.45;70.40;;;15.50;99.90;;;;;;5010488;28;20217;-51
2022/09/26 12:30:08;;;;;;;244.35;193.15;;;15.50;99.90;;;;;;5011074;28;20313;-51
2022/09/26 12:33:02;;;;;;;290.60;234.35;;;15.40;99.90;;;;;;5009609;28;20885;-50
2022/09/26 12:35:44;;;;;;;95.22;81.65;;;15.20;99.90;;;;;;4997808;28;20214;-50
2022/09/26 12:38:33;;;;;;;206.37;141.33;;;15.10;99.90;;;;;;5010677;28;20207;-50
2022/09/26 12:41:17;;;;;;;88.37;64.23;;;14.90;99.90;;;;;;5009919;28;20227;-50
2022/09/26 12:44:18;;;;;;;368.27;262.40;;;14.80;99.90;;;;;;5009909;28;20289;-51
2022/09/26 12:47:07;;;;;;;157.20;108.60;;;14.70;99.90;;;;;;4992716;28;20329;-50
2022/09/26 12:49:52;;;;;;;64.70;56.60;;;14.40;99.90;;;;;;5010664;28;20678;-50
2022/09/26 12:52:33;;;;;;;203.10;133.67;;;14.30;99.90;;;;;;4997203;28;20305;-51
2022/09/26 12:55:16;;;;;;;129.30;90.70;;;14.20;99.90;;;;;;5010670;28;20298;-50
2022/09/26 12:58:04;;;;;;;206.27;142.17;;;14.20;99.90;;;;;;5010256;28;20210;-50
2022/09/26 13:00:40;;;;;;;62.80;35.83;;;14.30;99.90;;;;;;5010472;28;20223;-51
2022/09/26 13:03:35;;;;;;;119.20;83.93;;;14.40;99.90;;;;;;5001437;28;20217;-51
2022/09/26 13:06:54;;;;;;;138.23;67.57;;;14.30;99.90;;;;;;4996952;28;20241;-51
2022/09/26 13:09:58;;;;;;;117.83;68.97;;;14.30;99.90;;;;;;4996415;28;20219;-51
2022/09/26 13:12:52;;;;;;;24.80;15.90;;;14.20;99.90;;;;;;5009514;28;20235;-50
2022/09/26 13:15:29;;;;;;;204.63;126.63;;;14.20;99.90;;;;;;5008902;28;20306;-50
2022/09/26 13:18:04;;;;;;;63.17;48.63;;;14.20;99.90;;;;;;5010213;28;20241;-50
2022/09/26 13:20:39;;;;;;;39.40;31.70;;;14.20;99.90;;;;;;5009086;28;20230;-51
2022/09/26 13:23:15;;;;;;;65.87;52.37;;;14.20;99.90;;;;;;5008745;28;20297;-51
2022/09/26 13:25:47;;;;;;;67.53;46.63;;;14.20;99.90;;;;;;5010386;28;20245;-50
2022/09/26 13:28:22;;;;;;;96.70;71.00;;;14.20;99.90;;;;;;5009422;28;20672;-51